createdAt,value
2018-07-17T00:00:15.904Z,17.50
2018-07-17T00:02:45.183Z,17.40
2018-07-17T00:05:14.457Z,17.40
2018-07-17T00:07:43.719Z,17.40
2018-07-17T00:10:13.008Z,17.30
2018-07-17T00:12:42.352Z,17.20
2018-07-17T00:15:11.535Z,17.20
2018-07-17T00:17:40.800Z,17.10
2018-07-17T00:20:10.068Z,17.10
2018-07-17T00:22:39.359Z,17.10
2018-07-17T00:25:08.664Z,17.00
2018-07-17T00:27:37.997Z,17.00
2018-07-17T00:30:07.307Z,17.00
2018-07-17T00:32:36.613Z,17.00
2018-07-17T00:35:05.918Z,17.00
2018-07-17T00:37:35.243Z,16.90
2018-07-17T00:40:04.532Z,16.90
2018-07-17T00:42:33.797Z,16.80
2018-07-17T00:45:03.095Z,16.80
2018-07-17T00:47:32.394Z,16.80
2018-07-17T00:50:01.654Z,16.80
2018-07-17T00:52:30.989Z,16.80
2018-07-17T00:55:00.246Z,16.70
2018-07-17T00:57:29.582Z,16.70
2018-07-17T00:59:58.875Z,16.70
2018-07-17T01:02:33.529Z,16.70
2018-07-17T01:05:07.975Z,16.70
2018-07-17T01:07:42.565Z,16.60
2018-07-17T01:10:17.015Z,16.50
2018-07-17T01:12:45.395Z,16.50
2018-07-17T01:15:17.861Z,16.40
2018-07-17T01:17:47.124Z,16.40
2018-07-17T01:25:14.367Z,16.30
2018-07-17T01:27:43.647Z,16.30
2018-07-17T01:30:12.911Z,16.20
2018-07-17T01:32:42.308Z,16.20
2018-07-17T01:35:11.529Z,16.10
2018-07-17T01:37:40.768Z,16.10
2018-07-17T01:40:10.012Z,16.10
2018-07-17T01:45:08.306Z,16.10
2018-07-17T01:47:37.559Z,16.10
2018-07-17T01:50:06.811Z,16.00
2018-07-17T01:52:36.072Z,16.00
2018-07-17T01:55:05.311Z,16.00
2018-07-17T01:57:34.598Z,15.90
2018-07-17T02:00:04.012Z,15.90
2018-07-17T02:02:33.316Z,15.90
2018-07-17T02:05:02.564Z,15.80
2018-07-17T02:07:31.833Z,15.80
2018-07-17T02:10:01.111Z,15.80
2018-07-17T02:12:30.410Z,15.80
2018-07-17T02:14:59.678Z,15.80
2018-07-17T02:17:28.919Z,15.70
2018-07-17T02:19:58.207Z,15.70
2018-07-17T02:22:27.455Z,15.60
2018-07-17T02:24:56.732Z,15.60
2018-07-17T02:27:25.982Z,15.50
2018-07-17T02:29:55.275Z,15.50
2018-07-17T02:32:24.553Z,15.50
2018-07-17T02:34:53.823Z,15.50
2018-07-17T02:37:23.051Z,15.50
2018-07-17T02:39:52.363Z,15.50
2018-07-17T02:42:21.725Z,15.40
2018-07-17T02:44:50.994Z,15.40
2018-07-17T02:47:20.252Z,15.40
2018-07-17T02:49:49.535Z,15.30
2018-07-17T02:52:18.796Z,15.30
2018-07-17T02:54:48.094Z,15.30
2018-07-17T02:57:17.416Z,15.30
2018-07-17T02:59:46.708Z,15.20
2018-07-17T03:02:16.015Z,15.20
2018-07-17T03:04:45.277Z,15.10
2018-07-17T03:07:14.515Z,15.10
2018-07-17T03:09:43.819Z,15.10
2018-07-17T03:12:13.164Z,15.10
2018-07-17T03:14:42.519Z,15.10
2018-07-17T03:17:11.782Z,15.10
2018-07-17T03:19:41.230Z,15.10
2018-07-17T03:22:10.479Z,15.10
2018-07-17T03:24:40.084Z,15.10
2018-07-17T03:27:09.094Z,15.00
2018-07-17T03:29:38.363Z,15.00
2018-07-17T03:32:07.841Z,14.90
2018-07-17T03:34:37.025Z,14.80
2018-07-17T03:37:06.412Z,14.90
2018-07-17T03:39:35.763Z,14.90
2018-07-17T03:42:05.067Z,14.90
2018-07-17T03:44:34.426Z,14.90
2018-07-17T03:47:03.747Z,14.90
2018-07-17T03:49:33.016Z,14.90
2018-07-17T03:52:02.263Z,14.90
2018-07-17T03:54:31.478Z,14.90
2018-07-17T03:59:29.780Z,14.90
2018-07-17T04:01:59.107Z,14.90
2018-07-17T04:04:28.387Z,14.90
2018-07-17T04:06:57.663Z,14.90
2018-07-17T04:09:26.934Z,15.00
2018-07-17T04:11:56.144Z,15.00
2018-07-17T04:14:25.475Z,15.00
2018-07-17T04:16:55.851Z,15.00
2018-07-17T04:19:26.338Z,15.00
2018-07-17T04:21:55.620Z,15.10
2018-07-17T04:24:25.208Z,15.00
2018-07-17T04:26:54.833Z,15.20
2018-07-17T04:29:24.131Z,15.30
2018-07-17T04:31:53.504Z,15.30
2018-07-17T04:34:22.703Z,15.40
2018-07-17T04:36:52.023Z,15.50
2018-07-17T04:39:21.317Z,15.60
2018-07-17T04:41:50.656Z,15.70
2018-07-17T04:44:20.000Z,15.80
2018-07-17T04:46:49.247Z,15.80
2018-07-17T04:49:18.519Z,15.90
2018-07-17T04:51:47.990Z,16.00
2018-07-17T04:54:17.268Z,16.10
2018-07-17T04:56:46.556Z,16.30
2018-07-17T04:59:15.820Z,16.40
2018-07-17T05:01:45.113Z,16.70
2018-07-17T05:04:14.330Z,17.90
2018-07-17T05:06:43.625Z,19.80
2018-07-17T05:09:12.847Z,21.50
2018-07-17T05:11:42.156Z,22.80
2018-07-17T05:14:11.469Z,23.60
2018-07-17T05:16:40.815Z,24.10
2018-07-17T05:19:10.037Z,24.90
2018-07-17T05:21:39.292Z,25.70
2018-07-17T05:24:08.505Z,26.40
2018-07-17T05:26:37.757Z,27.00
2018-07-17T05:29:07.101Z,27.50
2018-07-17T05:31:36.335Z,27.90
2018-07-17T05:36:34.603Z,28.50
2018-07-17T05:39:04.692Z,28.80
2018-07-17T05:41:33.940Z,28.80
2018-07-17T05:44:03.202Z,28.80
2018-07-17T05:46:32.514Z,28.70
2018-07-17T05:49:01.760Z,28.90
2018-07-17T05:51:31.076Z,29.30
2018-07-17T05:54:00.460Z,29.80
2018-07-17T05:56:29.710Z,30.00
2018-07-17T05:58:58.966Z,30.10
2018-07-17T06:01:28.264Z,30.20
2018-07-17T06:03:57.559Z,30.50
2018-07-17T06:06:26.849Z,30.50
2018-07-17T06:08:56.135Z,30.70
2018-07-17T06:11:25.351Z,31.10
2018-07-17T06:13:54.640Z,31.60
2018-07-17T06:16:23.956Z,32.00
2018-07-17T06:18:53.268Z,32.30
2018-07-17T06:21:22.534Z,32.60
2018-07-17T06:23:52.082Z,32.50
2018-07-17T06:26:21.441Z,32.00
2018-07-17T06:28:50.726Z,31.50
2018-07-17T06:31:20.153Z,31.20
2018-07-17T06:33:49.624Z,31.60
2018-07-17T06:36:18.980Z,32.10
2018-07-17T06:38:48.435Z,32.50
2018-07-17T06:41:17.608Z,32.80
2018-07-17T06:43:46.923Z,32.60
2018-07-17T06:46:16.186Z,32.90
2018-07-17T06:48:45.463Z,32.80
2018-07-17T06:51:14.734Z,33.00
2018-07-17T06:53:44.019Z,32.50
2018-07-17T06:56:13.413Z,31.40
2018-07-17T06:58:42.804Z,30.20
2018-07-17T07:01:12.084Z,28.60
2018-07-17T07:03:41.355Z,27.40
2018-07-17T07:06:10.583Z,26.70
2018-07-17T07:08:39.869Z,26.40
2018-07-17T07:11:10.159Z,26.20
2018-07-17T07:13:39.433Z,26.00
2018-07-17T07:16:08.690Z,25.90
2018-07-17T07:18:37.927Z,25.70
2018-07-17T07:21:07.202Z,25.60
2018-07-17T07:23:36.567Z,25.60
2018-07-17T07:26:06.038Z,25.60
2018-07-17T07:28:35.250Z,25.70
2018-07-17T07:31:04.591Z,25.70
2018-07-17T07:33:33.870Z,25.80
2018-07-17T07:36:03.248Z,25.90
2018-07-17T07:38:32.506Z,26.00
2018-07-17T07:41:01.738Z,26.10
2018-07-17T07:43:31.006Z,26.20
2018-07-17T07:46:00.282Z,26.20
2018-07-17T07:48:29.501Z,26.30
2018-07-17T07:53:27.820Z,26.40
2018-07-17T07:55:57.136Z,26.50
2018-07-17T07:58:26.442Z,26.40
2018-07-17T08:00:55.842Z,26.30
2018-07-17T08:03:25.250Z,26.40
2018-07-17T08:05:54.590Z,26.50
2018-07-17T08:08:23.895Z,26.60
2018-07-17T08:10:53.214Z,26.70
2018-07-17T08:13:22.479Z,26.70
2018-07-17T08:15:51.877Z,26.80
2018-07-17T08:18:21.166Z,26.90
2018-07-17T08:20:50.839Z,27.10
2018-07-17T08:23:20.360Z,27.20
2018-07-17T08:25:50.009Z,27.50
2018-07-17T08:30:48.338Z,27.60
2018-07-17T08:33:17.607Z,27.80
2018-07-17T08:35:46.929Z,27.90
2018-07-17T08:38:16.308Z,27.90
2018-07-17T08:40:45.781Z,27.80
2018-07-17T08:43:15.421Z,27.50
2018-07-17T08:45:45.103Z,27.30
2018-07-17T08:48:14.468Z,27.50
2018-07-17T08:50:43.783Z,27.50
2018-07-17T08:53:13.069Z,27.80
2018-07-17T08:55:42.379Z,27.90
2018-07-17T08:58:11.675Z,28.10
2018-07-17T09:00:41.651Z,28.30
2018-07-17T09:03:11.474Z,28.40
2018-07-17T09:05:40.895Z,28.50
2018-07-17T09:08:10.503Z,28.60
2018-07-17T09:10:39.763Z,28.70
2018-07-17T09:13:09.070Z,28.80
2018-07-17T09:15:38.385Z,28.80
2018-07-17T09:18:07.676Z,28.90
2018-07-17T09:20:37.120Z,28.90
2018-07-17T09:23:06.542Z,29.10
2018-07-17T09:25:35.863Z,29.10
2018-07-17T09:28:05.233Z,29.10
2018-07-17T09:30:39.708Z,29.00
2018-07-17T09:33:09.723Z,28.90
2018-07-17T09:35:38.999Z,28.80
2018-07-17T09:38:08.822Z,29.00
2018-07-17T09:40:39.070Z,29.00
2018-07-17T09:43:08.872Z,28.90
2018-07-17T09:45:38.233Z,28.90
2018-07-17T09:48:07.860Z,29.00
2018-07-17T09:50:37.268Z,29.10
2018-07-17T09:53:06.744Z,29.30
2018-07-17T09:55:36.068Z,29.50
2018-07-17T09:58:05.416Z,29.50
2018-07-17T10:00:35.927Z,29.60
2018-07-17T10:05:34.415Z,29.40
2018-07-17T10:08:03.704Z,29.40
2018-07-17T10:10:32.981Z,29.50
2018-07-17T10:13:02.376Z,29.50
2018-07-17T10:15:31.623Z,29.50
2018-07-17T10:18:01.004Z,29.70
2018-07-17T10:20:30.230Z,29.80
2018-07-17T10:22:59.566Z,29.80
2018-07-17T10:25:28.895Z,29.70
2018-07-17T10:27:58.324Z,29.50
2018-07-17T10:30:27.687Z,29.40
2018-07-17T10:32:57.022Z,29.40
2018-07-17T10:35:26.329Z,29.60
2018-07-17T10:37:55.596Z,29.50
2018-07-17T10:40:24.860Z,29.60
2018-07-17T10:42:54.120Z,29.90
2018-07-17T10:47:52.386Z,30.10
2018-07-17T10:50:21.608Z,30.10
2018-07-17T10:52:51.004Z,30.00
2018-07-17T10:55:20.271Z,30.00
2018-07-17T10:57:49.786Z,29.70
2018-07-17T11:00:19.172Z,29.30
2018-07-17T11:02:48.586Z,29.10
2018-07-17T11:05:17.931Z,29.10
2018-07-17T11:07:47.248Z,29.20
2018-07-17T11:10:16.554Z,29.50
2018-07-17T11:12:45.859Z,29.80
2018-07-17T11:15:15.140Z,30.20
2018-07-17T11:17:44.414Z,30.10
2018-07-17T11:22:42.809Z,29.90
2018-07-17T11:25:12.090Z,29.70
2018-07-17T11:27:41.580Z,29.40
2018-07-17T11:30:10.844Z,29.30
2018-07-17T11:32:40.131Z,29.00
2018-07-17T11:35:09.464Z,28.70
2018-07-17T11:37:38.742Z,28.60
2018-07-17T11:40:08.119Z,28.90
2018-07-17T11:42:37.426Z,29.40
2018-07-17T11:45:06.859Z,29.40
2018-07-17T11:47:36.089Z,29.30
2018-07-17T11:50:05.937Z,29.40
2018-07-17T11:52:35.212Z,29.60
2018-07-17T11:55:04.648Z,30.00
2018-07-17T11:57:34.226Z,30.40
2018-07-17T12:00:03.916Z,30.60
2018-07-17T12:02:33.195Z,30.80
2018-07-17T12:05:02.608Z,30.70
2018-07-17T12:07:31.900Z,30.50
2018-07-17T12:12:30.440Z,30.50
2018-07-17T12:15:01.409Z,30.70
2018-07-17T12:17:30.823Z,30.90
2018-07-17T12:20:00.447Z,31.10
2018-07-17T12:22:29.639Z,31.20
2018-07-17T12:25:00.003Z,31.40
2018-07-17T12:27:29.381Z,31.50
2018-07-17T12:29:58.721Z,31.60
2018-07-17T12:32:27.968Z,31.60
2018-07-17T12:34:57.318Z,31.70
2018-07-17T12:37:26.668Z,31.70
2018-07-17T12:39:56.260Z,31.50
2018-07-17T12:42:26.146Z,31.10
2018-07-17T12:44:55.667Z,30.90
2018-07-17T12:47:24.907Z,31.10
2018-07-17T12:49:54.382Z,31.30
2018-07-17T12:52:23.716Z,31.30
2018-07-17T12:54:53.024Z,31.70
2018-07-17T12:57:22.503Z,31.70
2018-07-17T12:59:51.832Z,31.80
2018-07-17T13:02:21.104Z,31.80
2018-07-17T13:04:50.422Z,31.80
2018-07-17T13:07:19.803Z,31.80
2018-07-17T13:09:49.125Z,32.00
2018-07-17T13:12:18.475Z,32.00
2018-07-17T13:14:47.813Z,32.10
2018-07-17T13:17:17.826Z,32.00
2018-07-17T13:19:47.139Z,31.80
2018-07-17T13:22:16.420Z,32.00
2018-07-17T13:24:45.759Z,32.30
2018-07-17T13:27:15.070Z,32.60
2018-07-17T13:29:44.409Z,32.60
2018-07-17T13:32:13.704Z,32.60
2018-07-17T13:34:43.149Z,32.30
2018-07-17T13:37:12.556Z,31.90
2018-07-17T13:39:41.874Z,31.40
2018-07-17T13:42:11.358Z,30.90
2018-07-17T13:44:40.684Z,30.60
2018-07-17T13:49:38.989Z,29.70
2018-07-17T13:52:08.305Z,29.40
2018-07-17T13:54:37.677Z,29.00
2018-07-17T13:57:07.369Z,28.80
2018-07-17T13:59:36.716Z,28.60
2018-07-17T14:02:06.488Z,28.20
2018-07-17T14:04:36.171Z,27.80
2018-07-17T14:07:05.584Z,27.70
2018-07-17T14:09:35.032Z,27.40
2018-07-17T14:12:04.595Z,27.20
2018-07-17T14:14:33.968Z,26.90
2018-07-17T14:17:03.374Z,26.80
2018-07-17T14:19:32.742Z,26.60
2018-07-17T14:22:03.041Z,26.70
2018-07-17T14:27:01.354Z,27.00
2018-07-17T14:29:30.736Z,27.20
2018-07-17T14:32:00.104Z,27.30
2018-07-17T14:34:29.437Z,27.10
2018-07-17T14:36:58.788Z,27.00
2018-07-17T14:39:28.126Z,27.00
2018-07-17T14:41:57.456Z,27.00
2018-07-17T14:46:55.945Z,27.20
2018-07-17T14:51:54.503Z,28.00
2018-07-17T14:54:23.849Z,28.30
2018-07-17T14:56:53.177Z,28.20
2018-07-17T15:01:54.957Z,28.10
2018-07-17T15:04:24.339Z,27.90
2018-07-17T15:06:53.703Z,27.60
2018-07-17T15:09:22.995Z,27.50
2018-07-17T15:11:53.447Z,27.50
2018-07-17T15:14:22.723Z,27.30
2018-07-17T15:16:52.143Z,27.20
2018-07-17T15:19:21.425Z,27.10
2018-07-17T15:21:50.744Z,27.20
2018-07-17T15:24:19.994Z,27.30
2018-07-17T15:26:49.271Z,27.50
2018-07-17T15:29:18.619Z,27.50
2018-07-17T15:31:47.960Z,27.70
2018-07-17T15:34:17.508Z,28.00
2018-07-17T15:36:46.836Z,28.40
2018-07-17T15:39:16.817Z,28.70
2018-07-17T15:41:46.086Z,29.00
2018-07-17T15:44:15.447Z,29.30
2018-07-17T15:46:44.759Z,29.40
2018-07-17T15:49:14.424Z,29.30
2018-07-17T15:51:47.010Z,29.40
2018-07-17T15:54:16.707Z,29.60
2018-07-17T15:56:46.082Z,29.70
2018-07-17T15:59:15.451Z,29.60
2018-07-17T16:01:44.915Z,29.60
2018-07-17T16:04:14.222Z,29.60
2018-07-17T16:06:43.501Z,29.60
2018-07-17T16:09:12.933Z,29.50
2018-07-17T16:11:42.432Z,29.30
2018-07-17T16:14:12.228Z,29.10
2018-07-17T16:16:41.139Z,29.00
2018-07-17T16:19:10.374Z,29.00
2018-07-17T16:21:39.625Z,29.00
2018-07-17T16:24:08.878Z,29.00
2018-07-17T16:26:38.257Z,29.10
2018-07-17T16:29:07.482Z,29.20
2018-07-17T16:31:38.700Z,29.10
2018-07-17T16:34:08.058Z,29.00
2018-07-17T16:36:37.450Z,28.90
2018-07-17T16:39:08.000Z,28.90
2018-07-17T16:41:37.283Z,28.70
2018-07-17T16:44:06.727Z,28.70
2018-07-17T16:46:36.089Z,28.70
2018-07-17T16:49:05.458Z,28.80
2018-07-17T16:51:34.710Z,28.80
2018-07-17T16:54:04.070Z,28.80
2018-07-17T16:56:33.250Z,28.80
2018-07-17T16:59:02.541Z,28.90
2018-07-17T17:01:31.842Z,29.10
2018-07-17T17:04:01.271Z,29.40
2018-07-17T17:06:30.546Z,29.70
2018-07-17T17:08:59.880Z,30.20
2018-07-17T17:11:29.130Z,30.50
2018-07-17T17:13:58.713Z,31.10
2018-07-17T17:16:28.014Z,31.30
2018-07-17T17:18:57.374Z,31.60
2018-07-17T17:21:26.650Z,31.80
2018-07-17T17:23:56.006Z,31.80
2018-07-17T17:26:25.306Z,31.90
2018-07-17T17:28:54.647Z,32.00
2018-07-17T17:31:23.956Z,31.70
2018-07-17T17:33:53.233Z,31.30
2018-07-17T17:36:22.685Z,30.80
2018-07-17T17:38:51.910Z,30.00
2018-07-17T17:41:21.393Z,29.20
2018-07-17T17:43:50.969Z,28.40
2018-07-17T17:46:20.262Z,27.80
2018-07-17T17:48:49.558Z,27.40
2018-07-17T17:51:18.856Z,27.20
2018-07-17T17:53:48.163Z,27.10
2018-07-17T17:56:17.707Z,26.90
2018-07-17T17:58:47.060Z,26.80
2018-07-17T18:01:16.482Z,26.70
2018-07-17T18:03:45.867Z,26.50
2018-07-17T18:06:15.147Z,26.50
2018-07-17T18:08:44.440Z,26.40
2018-07-17T18:13:42.860Z,26.10
2018-07-17T18:16:12.146Z,26.00
2018-07-17T18:18:41.395Z,25.90
2018-07-17T18:21:10.710Z,25.90
2018-07-17T18:23:40.061Z,25.90
2018-07-17T18:26:09.438Z,25.80
2018-07-17T18:28:38.954Z,25.90
2018-07-17T18:31:08.488Z,25.80
2018-07-17T18:33:37.761Z,25.70
2018-07-17T18:36:07.922Z,25.50
2018-07-17T18:38:37.102Z,25.40
2018-07-17T18:41:06.351Z,25.20
2018-07-17T18:43:35.490Z,25.10
2018-07-17T18:46:04.780Z,24.90
2018-07-17T18:48:33.982Z,24.80
2018-07-17T18:51:03.295Z,24.60
2018-07-17T18:53:33.313Z,24.40
2018-07-17T18:58:31.688Z,24.00
2018-07-17T19:01:01.206Z,23.90
2018-07-17T19:03:30.507Z,23.70
2018-07-17T19:05:59.944Z,23.60
2018-07-17T19:08:29.219Z,23.40
2018-07-17T19:10:58.455Z,23.20
2018-07-17T19:13:27.710Z,23.10
2018-07-17T19:15:57.056Z,22.90
2018-07-17T19:18:26.220Z,22.80
2018-07-17T19:20:55.527Z,22.60
2018-07-17T19:25:54.248Z,22.40
2018-07-17T19:28:23.699Z,22.30
2018-07-17T19:30:52.953Z,22.20
2018-07-17T19:33:22.247Z,22.10
2018-07-17T19:35:51.737Z,22.10
2018-07-17T19:40:50.224Z,21.90
2018-07-17T19:43:19.489Z,21.90
2018-07-17T19:45:48.859Z,21.80
2018-07-17T19:48:18.233Z,21.70
2018-07-17T19:50:47.609Z,21.70
2018-07-17T19:53:16.921Z,21.60
2018-07-17T19:55:46.247Z,21.60
2018-07-17T19:58:15.703Z,21.60
2018-07-17T20:00:45.062Z,21.50
2018-07-17T20:03:14.420Z,21.40
2018-07-17T20:05:43.654Z,21.40
2018-07-17T20:08:13.012Z,21.40
2018-07-17T20:10:42.409Z,21.40
2018-07-17T20:13:11.824Z,21.30
2018-07-17T20:15:41.152Z,21.30
2018-07-17T20:18:10.442Z,21.20
2018-07-17T20:20:39.787Z,21.20
2018-07-17T20:23:09.160Z,21.20
2018-07-17T20:25:38.384Z,21.20
2018-07-17T20:28:07.678Z,21.20
2018-07-17T20:30:36.926Z,21.20
2018-07-17T20:33:06.411Z,21.10
2018-07-17T20:35:35.719Z,21.10
2018-07-17T20:38:04.934Z,20.90
2018-07-17T20:40:34.293Z,20.80
2018-07-17T20:43:03.503Z,20.70
2018-07-17T20:45:32.780Z,20.70
2018-07-17T20:48:02.184Z,20.60
2018-07-17T20:50:31.637Z,20.60
2018-07-17T20:53:00.969Z,20.60
2018-07-17T20:55:30.288Z,20.50
2018-07-17T20:57:59.581Z,20.40
2018-07-17T21:00:28.856Z,20.40
2018-07-17T21:02:58.134Z,20.30
2018-07-17T21:05:27.467Z,20.20
2018-07-17T21:07:56.673Z,20.20
2018-07-17T21:10:25.944Z,20.10
2018-07-17T21:12:55.194Z,20.10
2018-07-17T21:15:24.471Z,20.00
2018-07-17T21:17:53.741Z,19.90
2018-07-17T21:20:23.178Z,19.90
2018-07-17T21:22:52.478Z,19.80
2018-07-17T21:25:21.927Z,19.80
2018-07-17T21:27:51.212Z,19.90
2018-07-17T21:30:20.484Z,19.90
2018-07-17T21:32:49.718Z,19.90
2018-07-17T21:35:18.983Z,19.90
2018-07-17T21:37:48.268Z,19.90
2018-07-17T21:40:17.557Z,20.00
2018-07-17T21:42:46.871Z,20.00
2018-07-17T21:45:16.227Z,20.00
2018-07-17T21:47:45.561Z,20.00
2018-07-17T21:50:14.819Z,20.10
2018-07-17T21:52:44.089Z,20.20
2018-07-17T21:55:13.370Z,20.30
2018-07-17T21:57:42.682Z,20.40
2018-07-17T22:00:12.103Z,20.60
2018-07-17T22:05:10.416Z,20.80
2018-07-17T22:07:39.679Z,20.90
2018-07-17T22:10:08.936Z,20.80
2018-07-17T22:12:38.195Z,20.80
2018-07-17T22:15:07.495Z,20.80
2018-07-17T22:17:36.774Z,20.80
2018-07-17T22:20:06.075Z,20.70
2018-07-17T22:22:35.482Z,20.70
2018-07-17T22:25:04.820Z,20.70
2018-07-17T22:27:34.187Z,20.70
2018-07-17T22:30:03.661Z,20.60
2018-07-17T22:32:32.936Z,20.60
2018-07-17T22:35:02.240Z,20.50
2018-07-17T22:37:31.512Z,20.40
2018-07-17T22:40:00.796Z,20.40
2018-07-17T22:42:30.021Z,20.30
2018-07-17T22:44:59.348Z,20.20
2018-07-17T22:47:28.674Z,20.10
2018-07-17T22:49:57.920Z,20.10
2018-07-17T22:52:27.173Z,20.00
2018-07-17T22:54:56.535Z,19.90
2018-07-17T22:57:25.913Z,19.80
2018-07-17T22:59:55.195Z,19.80
2018-07-17T23:02:24.493Z,19.70
2018-07-17T23:04:53.758Z,19.60
2018-07-17T23:07:23.039Z,19.50
2018-07-17T23:09:52.299Z,19.40
2018-07-17T23:12:21.576Z,19.30
2018-07-17T23:14:50.828Z,19.30
2018-07-17T23:17:20.119Z,19.20
2018-07-17T23:19:49.387Z,19.10
2018-07-17T23:22:28.303Z,19.00
2018-07-17T23:24:57.681Z,18.90
2018-07-17T23:27:27.104Z,18.90
2018-07-17T23:29:56.325Z,18.80
2018-07-17T23:32:25.604Z,18.80
2018-07-17T23:34:54.948Z,18.70
2018-07-17T23:37:24.242Z,18.70
2018-07-17T23:39:53.483Z,18.70
2018-07-17T23:42:22.827Z,18.60
2018-07-17T23:44:52.075Z,18.50
2018-07-17T23:47:21.372Z,18.50
2018-07-17T23:49:50.659Z,18.40
2018-07-17T23:52:19.916Z,18.40
2018-07-17T23:54:49.306Z,18.40
2018-07-17T23:57:18.612Z,18.30
2018-07-17T23:59:47.949Z,18.20
